createdAt,value
2019-01-15T00:01:01.463Z,1.76
2019-01-15T00:03:30.633Z,1.77
2019-01-15T00:05:59.876Z,1.81
2019-01-15T00:08:29.398Z,1.79
2019-01-15T00:10:58.571Z,1.76
2019-01-15T00:13:27.810Z,1.56
2019-01-15T00:15:57.034Z,1.48
2019-01-15T00:18:26.251Z,1.40
2019-01-15T00:20:55.813Z,1.44
2019-01-15T00:23:25.086Z,1.54
2019-01-15T00:25:55.489Z,1.56
2019-01-15T00:28:24.672Z,1.60
2019-01-15T00:30:55.077Z,1.59
2019-01-15T00:33:24.571Z,1.64
2019-01-15T00:35:54.200Z,1.67
2019-01-15T00:38:23.445Z,1.71
2019-01-15T00:40:53.279Z,1.67
2019-01-15T00:43:22.796Z,1.65
2019-01-15T00:45:51.971Z,1.73
2019-01-15T00:48:21.526Z,1.66
2019-01-15T00:50:51.107Z,1.65
2019-01-15T00:53:20.258Z,1.73
2019-01-15T00:55:49.766Z,1.70
2019-01-15T00:58:20.950Z,1.70
2019-01-15T01:00:50.162Z,1.73
2019-01-15T01:03:19.317Z,1.65
2019-01-15T01:05:49.001Z,1.69
2019-01-15T01:08:18.572Z,1.65
2019-01-15T01:10:47.804Z,1.63
2019-01-15T01:13:17.075Z,1.63
2019-01-15T01:15:46.604Z,1.65
2019-01-15T01:18:15.864Z,1.62
2019-01-15T01:20:45.476Z,1.65
2019-01-15T01:23:14.962Z,1.63
2019-01-15T01:25:44.107Z,1.61
2019-01-15T01:28:13.689Z,1.59
2019-01-15T01:30:42.855Z,1.58
2019-01-15T01:33:12.048Z,1.62
2019-01-15T01:35:41.429Z,1.59
2019-01-15T01:38:10.874Z,1.57
2019-01-15T01:40:40.405Z,1.60
2019-01-15T01:43:10.030Z,1.64
2019-01-15T01:45:39.491Z,1.63
2019-01-15T01:48:09.028Z,1.69
2019-01-15T01:50:38.198Z,1.66
2019-01-15T01:53:08.058Z,1.69
2019-01-15T01:55:37.323Z,1.74
2019-01-15T01:58:06.918Z,1.75
2019-01-15T02:00:36.456Z,1.81
2019-01-15T02:03:05.790Z,1.89
2019-01-15T02:05:34.990Z,1.91
2019-01-15T02:08:04.400Z,1.93
2019-01-15T02:10:33.730Z,2.01
2019-01-15T02:13:05.202Z,2.03
2019-01-15T02:15:34.376Z,2.02
2019-01-15T02:18:03.569Z,2.04
2019-01-15T02:20:32.732Z,2.01
2019-01-15T02:23:01.964Z,1.99
2019-01-15T02:25:31.536Z,2.02
2019-01-15T02:28:00.827Z,2.03
2019-01-15T02:30:30.145Z,2.08
2019-01-15T02:32:59.660Z,2.12
2019-01-15T02:35:29.548Z,2.14
2019-01-15T02:37:59.090Z,2.10
2019-01-15T02:40:28.591Z,2.16
2019-01-15T02:42:57.901Z,2.15
2019-01-15T02:45:28.814Z,2.12
2019-01-15T02:47:58.001Z,2.13
2019-01-15T02:50:28.044Z,2.16
2019-01-15T02:52:57.220Z,2.22
2019-01-15T02:55:26.398Z,2.25
2019-01-15T02:57:56.478Z,2.21
2019-01-15T03:00:26.964Z,2.25
2019-01-15T03:02:57.993Z,2.31
2019-01-15T03:05:27.450Z,2.31
2019-01-15T03:07:56.658Z,2.39
2019-01-15T03:10:25.875Z,2.31
2019-01-15T03:12:56.823Z,2.30
2019-01-15T03:15:26.213Z,2.30
2019-01-15T03:17:55.864Z,2.29
2019-01-15T03:20:25.403Z,2.28
2019-01-15T03:22:54.993Z,2.33
2019-01-15T03:25:24.389Z,2.34
2019-01-15T03:27:53.988Z,2.36
2019-01-15T03:30:25.792Z,2.42
2019-01-15T03:32:55.164Z,2.35
2019-01-15T03:35:24.330Z,2.38
2019-01-15T03:37:53.520Z,2.35
2019-01-15T03:40:26.762Z,2.39
2019-01-15T03:43:03.181Z,2.40
2019-01-15T03:45:27.236Z,2.38
2019-01-15T03:47:56.559Z,2.41
2019-01-15T03:50:25.740Z,2.38
2019-01-15T03:52:54.903Z,2.40
2019-01-15T03:55:24.498Z,2.37
2019-01-15T03:57:54.097Z,2.38
2019-01-15T04:00:26.768Z,2.44
2019-01-15T04:02:57.204Z,2.46
2019-01-15T04:05:28.499Z,2.51
2019-01-15T04:08:01.070Z,2.56
2019-01-15T04:10:30.438Z,2.59
2019-01-15T04:12:59.693Z,2.59
2019-01-15T04:15:28.862Z,2.52
2019-01-15T04:17:58.210Z,2.56
2019-01-15T04:20:28.875Z,2.68
2019-01-15T04:22:58.096Z,2.78
2019-01-15T04:25:29.632Z,2.77
2019-01-15T04:27:59.443Z,2.76
2019-01-15T04:30:28.622Z,2.80
2019-01-15T04:32:57.820Z,2.83
2019-01-15T04:35:27.038Z,2.99
2019-01-15T04:37:56.558Z,2.88
2019-01-15T04:40:25.719Z,2.92
2019-01-15T04:42:55.258Z,2.92
2019-01-15T04:45:26.998Z,2.90
2019-01-15T04:47:56.197Z,2.99
2019-01-15T04:50:25.756Z,2.96
2019-01-15T04:52:59.659Z,3.01
2019-01-15T04:55:28.919Z,2.96
2019-01-15T04:57:58.437Z,2.97
2019-01-15T05:00:27.658Z,3.06
2019-01-15T05:02:59.851Z,3.06
2019-01-15T05:05:29.040Z,3.03
2019-01-15T05:07:58.230Z,3.08
2019-01-15T05:10:27.462Z,3.02
2019-01-15T05:12:57.639Z,3.04
2019-01-15T05:15:27.298Z,3.01
2019-01-15T05:17:56.947Z,2.97
2019-01-15T05:20:26.173Z,2.93
2019-01-15T05:22:55.852Z,2.93
2019-01-15T05:25:25.199Z,2.90
2019-01-15T05:27:54.761Z,2.93
2019-01-15T05:30:25.798Z,3.02
2019-01-15T05:32:55.415Z,3.07
2019-01-15T05:35:25.070Z,3.13
2019-01-15T05:37:54.662Z,3.22
2019-01-15T05:40:23.851Z,3.27
2019-01-15T05:42:53.628Z,3.34
2019-01-15T05:45:34.158Z,3.37
2019-01-15T05:48:22.291Z,3.47
2019-01-15T05:51:24.369Z,3.46
2019-01-15T05:53:53.997Z,3.53
2019-01-15T05:56:23.983Z,3.60
2019-01-15T05:58:53.506Z,3.58
2019-01-15T06:01:22.823Z,3.66
2019-01-15T06:03:52.104Z,3.69
2019-01-15T06:06:21.339Z,3.63
2019-01-15T06:08:50.497Z,3.68
2019-01-15T06:11:19.715Z,3.67
2019-01-15T06:13:49.296Z,3.72
2019-01-15T06:16:19.006Z,3.68
2019-01-15T06:18:48.630Z,3.74
2019-01-15T06:21:18.117Z,3.71
2019-01-15T06:23:47.335Z,3.74
2019-01-15T06:26:18.369Z,3.77
2019-01-15T06:28:47.772Z,3.77
2019-01-15T06:31:18.541Z,3.79
2019-01-15T06:33:47.715Z,3.86
2019-01-15T06:36:16.991Z,3.89
2019-01-15T06:38:46.567Z,3.90
2019-01-15T06:41:16.099Z,3.88
2019-01-15T06:43:50.021Z,3.91
2019-01-15T06:46:16.505Z,3.90
2019-01-15T06:48:45.705Z,3.90
2019-01-15T06:51:15.234Z,3.89
2019-01-15T06:53:44.768Z,3.94
2019-01-15T06:56:14.352Z,3.91
2019-01-15T06:58:43.915Z,3.96
2019-01-15T07:01:13.119Z,3.99
2019-01-15T07:03:42.353Z,3.98
2019-01-15T07:06:11.543Z,3.97
2019-01-15T07:08:41.500Z,3.99
2019-01-15T07:11:10.700Z,3.97
2019-01-15T07:13:39.944Z,3.99
2019-01-15T07:16:09.654Z,4.02
2019-01-15T07:18:38.835Z,4.03
2019-01-15T07:21:08.067Z,4.09
2019-01-15T07:23:37.687Z,4.11
2019-01-15T07:26:06.989Z,4.18
2019-01-15T07:28:36.212Z,4.20
2019-01-15T07:31:05.419Z,4.24
2019-01-15T07:33:35.009Z,4.30
2019-01-15T07:36:05.159Z,4.31
2019-01-15T07:38:34.724Z,4.37
2019-01-15T07:41:04.203Z,4.41
2019-01-15T07:43:33.581Z,4.37
2019-01-15T07:46:02.765Z,4.44
2019-01-15T07:48:31.987Z,4.43
2019-01-15T07:51:01.274Z,4.48
2019-01-15T07:53:31.407Z,4.45
2019-01-15T07:56:02.379Z,4.50
2019-01-15T07:58:31.584Z,4.47
2019-01-15T08:01:01.105Z,4.47
2019-01-15T08:03:30.403Z,4.55
2019-01-15T08:06:00.940Z,4.57
2019-01-15T08:08:30.118Z,4.61
2019-01-15T08:10:59.440Z,4.59
2019-01-15T08:13:30.448Z,4.60
2019-01-15T08:15:59.957Z,4.67
2019-01-15T08:18:29.128Z,4.69
2019-01-15T08:20:58.394Z,4.72
2019-01-15T08:23:28.296Z,4.72
2019-01-15T08:25:57.497Z,4.77
2019-01-15T08:28:27.007Z,4.79
2019-01-15T08:30:56.647Z,4.83
2019-01-15T08:33:26.006Z,4.88
2019-01-15T08:35:55.274Z,4.91
2019-01-15T08:38:24.725Z,4.96
2019-01-15T08:40:54.264Z,4.90
2019-01-15T08:43:26.289Z,4.93
2019-01-15T08:45:56.218Z,4.98
2019-01-15T08:48:27.984Z,5.06
2019-01-15T08:50:57.436Z,5.01
2019-01-15T08:53:27.190Z,5.06
2019-01-15T08:55:59.168Z,5.03
2019-01-15T08:58:28.420Z,5.01
2019-01-15T09:00:58.107Z,5.10
2019-01-15T09:03:27.306Z,5.11
2019-01-15T09:05:56.618Z,5.09
2019-01-15T09:08:26.989Z,5.15
2019-01-15T09:10:56.215Z,5.20
2019-01-15T09:13:25.399Z,5.21
2019-01-15T09:15:54.651Z,5.23
2019-01-15T09:18:24.166Z,5.25
2019-01-15T09:20:53.356Z,5.23
2019-01-15T09:23:22.657Z,5.30
2019-01-15T09:25:52.012Z,5.31
2019-01-15T09:28:21.224Z,5.38
2019-01-15T09:30:50.437Z,5.40
2019-01-15T09:33:19.949Z,5.57
2019-01-15T09:35:49.532Z,5.46
2019-01-15T09:38:19.591Z,5.53
2019-01-15T09:40:49.139Z,5.50
2019-01-15T09:43:18.330Z,5.57
2019-01-15T09:45:47.505Z,5.57
2019-01-15T09:48:20.272Z,5.64
2019-01-15T09:50:49.457Z,5.66
2019-01-15T09:53:18.669Z,5.70
2019-01-15T09:55:48.003Z,5.70
2019-01-15T09:58:17.223Z,5.72
2019-01-15T10:00:46.385Z,5.76
2019-01-15T10:03:16.721Z,5.81
2019-01-15T10:05:45.984Z,5.92
2019-01-15T10:08:15.476Z,5.87
2019-01-15T10:10:44.693Z,5.95
2019-01-15T10:13:14.017Z,6.03
2019-01-15T10:15:44.617Z,5.96
2019-01-15T10:18:14.090Z,5.97
2019-01-15T10:20:43.824Z,6.01
2019-01-15T10:23:13.413Z,6.03
2019-01-15T10:25:42.849Z,6.04
2019-01-15T10:28:12.626Z,6.01
2019-01-15T10:31:05.512Z,6.04
2019-01-15T10:33:48.446Z,6.11
2019-01-15T10:36:16.013Z,6.08
2019-01-15T10:38:45.211Z,6.10
2019-01-15T10:41:14.757Z,6.09
2019-01-15T10:43:44.484Z,6.12
2019-01-15T10:46:13.626Z,6.15
2019-01-15T10:48:44.660Z,6.21
2019-01-15T10:51:15.747Z,6.22
2019-01-15T10:53:45.261Z,6.22
2019-01-15T10:56:14.499Z,6.26
2019-01-15T10:58:43.800Z,6.28
2019-01-15T11:01:13.286Z,6.27
2019-01-15T11:03:42.829Z,6.28
2019-01-15T11:06:12.301Z,6.28
2019-01-15T11:08:41.487Z,6.29
2019-01-15T11:11:10.903Z,6.38
2019-01-15T11:13:40.063Z,6.39
2019-01-15T11:16:09.533Z,6.44
2019-01-15T11:18:39.590Z,6.43
2019-01-15T11:21:09.227Z,6.47
2019-01-15T11:23:38.727Z,6.47
2019-01-15T11:26:07.941Z,6.46
2019-01-15T11:28:37.297Z,6.51
2019-01-15T11:31:06.738Z,6.48
2019-01-15T11:33:35.897Z,6.50
2019-01-15T11:36:05.304Z,6.62
2019-01-15T11:38:36.127Z,6.71
2019-01-15T11:41:05.486Z,6.79
2019-01-15T11:43:35.218Z,6.77
2019-01-15T11:46:04.913Z,6.94
2019-01-15T11:48:34.056Z,7.00
2019-01-15T11:51:03.365Z,6.94
2019-01-15T11:53:32.593Z,6.81
2019-01-15T11:56:03.351Z,6.89
2019-01-15T11:58:32.609Z,6.87
2019-01-15T12:01:15.305Z,6.90
2019-01-15T12:03:53.832Z,6.89
2019-01-15T12:06:57.383Z,6.94
2019-01-15T12:09:51.555Z,6.96
2019-01-15T12:12:38.269Z,7.22
2019-01-15T12:15:45.458Z,7.28
2019-01-15T12:18:36.645Z,7.23
2019-01-15T12:21:24.919Z,7.44
2019-01-15T12:24:12.355Z,7.44
2019-01-15T12:26:55.013Z,7.38
2019-01-15T12:29:46.274Z,7.37
2019-01-15T12:32:30.590Z,7.40
2019-01-15T12:35:21.543Z,7.27
2019-01-15T12:38:09.706Z,7.35
2019-01-15T12:41:16.304Z,7.51
2019-01-15T12:44:03.379Z,7.79
2019-01-15T12:46:50.829Z,7.86
2019-01-15T12:49:45.534Z,7.75
2019-01-15T12:52:36.560Z,7.70
2019-01-15T12:55:41.161Z,7.77
2019-01-15T12:58:21.986Z,7.50
2019-01-15T13:01:08.904Z,7.54
2019-01-15T13:03:57.023Z,7.64
2019-01-15T13:06:45.178Z,7.63
2019-01-15T13:09:32.171Z,7.62
2019-01-15T13:12:23.064Z,7.68
2019-01-15T13:15:10.095Z,7.62
2019-01-15T13:17:56.898Z,7.65
2019-01-15T13:20:50.894Z,7.68
2019-01-15T13:23:54.455Z,7.77
2019-01-15T13:26:48.637Z,7.74
2019-01-15T13:29:36.808Z,7.62
2019-01-15T13:32:41.413Z,7.52
2019-01-15T13:35:38.014Z,7.30
2019-01-15T13:38:29.327Z,7.23
2019-01-15T13:41:16.084Z,7.12
2019-01-15T13:44:07.307Z,7.20
2019-01-15T13:46:51.302Z,7.10
2019-01-15T13:49:51.818Z,7.16
2019-01-15T13:52:36.978Z,7.14
2019-01-15T13:55:21.894Z,7.10
2019-01-15T13:58:24.704Z,7.08
2019-01-15T14:01:09.192Z,7.08
2019-01-15T14:04:00.538Z,7.07
2019-01-15T14:06:58.195Z,7.05
2019-01-15T14:09:46.511Z,7.11
2019-01-15T14:12:40.787Z,7.23
2019-01-15T14:15:49.016Z,7.16
2019-01-15T14:18:36.256Z,7.13
2019-01-15T14:21:23.396Z,7.11
2019-01-15T14:24:11.503Z,7.14
2019-01-15T14:26:52.895Z,7.09
2019-01-15T14:29:41.269Z,7.12
2019-01-15T14:32:32.476Z,7.03
2019-01-15T14:35:34.027Z,7.00
2019-01-15T14:38:27.588Z,7.00
2019-01-15T14:41:14.759Z,7.01
2019-01-15T14:43:56.420Z,6.99
2019-01-15T14:46:59.994Z,6.99
2019-01-15T14:49:57.337Z,7.00
2019-01-15T14:52:36.506Z,7.09
2019-01-15T14:55:25.053Z,7.04
2019-01-15T14:58:28.566Z,7.02
2019-01-15T15:01:15.180Z,7.08
2019-01-15T15:03:55.055Z,7.04
2019-01-15T15:06:49.343Z,7.00
2019-01-15T15:09:41.778Z,7.10
2019-01-15T15:12:39.018Z,7.01
2019-01-15T15:15:34.208Z,7.05
2019-01-15T15:18:22.321Z,7.02
2019-01-15T15:21:09.876Z,7.00
2019-01-15T15:24:07.028Z,6.95
2019-01-15T15:26:58.325Z,6.91
2019-01-15T15:29:45.400Z,6.95
2019-01-15T15:32:28.261Z,6.91
2019-01-15T15:35:24.218Z,6.92
2019-01-15T15:38:11.835Z,6.91
2019-01-15T15:41:08.470Z,6.86
2019-01-15T15:43:48.166Z,6.89
2019-01-15T15:46:41.174Z,6.93
2019-01-15T15:49:32.327Z,6.97
2019-01-15T15:52:21.104Z,6.91
2019-01-15T15:55:05.117Z,6.94
2019-01-15T15:57:58.056Z,6.92
2019-01-15T16:00:53.189Z,6.93
2019-01-15T16:03:50.918Z,6.89
2019-01-15T16:06:38.911Z,6.98
2019-01-15T16:09:27.586Z,6.94
2019-01-15T16:12:16.574Z,6.96
2019-01-15T16:15:23.454Z,6.95
2019-01-15T16:18:15.124Z,7.02
2019-01-15T16:21:19.020Z,7.01
2019-01-15T16:24:07.152Z,7.01
2019-01-15T16:26:56.430Z,6.99
2019-01-15T16:29:59.928Z,6.96
2019-01-15T16:32:58.682Z,6.92
2019-01-15T16:35:35.932Z,6.96
2019-01-15T16:38:27.330Z,6.96
2019-01-15T16:41:17.477Z,7.00
2019-01-15T16:44:12.088Z,6.92
2019-01-15T16:47:06.374Z,6.86
2019-01-15T16:49:53.915Z,6.78
2019-01-15T16:52:41.460Z,6.70
2019-01-15T16:55:21.290Z,6.65
2019-01-15T16:58:22.831Z,6.63
2019-01-15T17:01:20.051Z,6.59
2019-01-15T17:04:07.135Z,6.56
2019-01-15T17:06:54.726Z,6.58
2019-01-15T17:09:37.136Z,6.55
2019-01-15T17:12:31.778Z,6.54
2019-01-15T17:15:32.299Z,6.51
2019-01-15T17:18:19.432Z,6.56
2019-01-15T17:21:07.966Z,6.50
2019-01-15T17:23:53.087Z,6.52
2019-01-15T17:26:41.238Z,6.50
2019-01-15T17:29:35.596Z,6.48
2019-01-15T17:32:23.727Z,6.46
2019-01-15T17:35:14.673Z,6.49
2019-01-15T17:37:58.575Z,6.50
2019-01-15T17:40:54.267Z,6.53
2019-01-15T17:43:39.781Z,6.47
2019-01-15T17:46:41.719Z,6.51
2019-01-15T17:49:32.706Z,6.53
2019-01-15T17:52:26.705Z,6.50
2019-01-15T17:55:16.697Z,6.50
2019-01-15T17:58:14.209Z,6.53
2019-01-15T18:01:02.672Z,6.52
2019-01-15T18:03:53.395Z,6.48
2019-01-15T18:06:54.958Z,6.48
2019-01-15T18:09:46.557Z,6.49
2019-01-15T18:12:33.938Z,6.49
2019-01-15T18:15:21.204Z,6.50
2019-01-15T18:18:09.575Z,6.50
2019-01-15T18:20:47.046Z,6.50
2019-01-15T18:23:39.209Z,6.51
2019-01-15T18:26:26.366Z,6.54
2019-01-15T18:29:11.027Z,6.53
2019-01-15T18:32:03.358Z,6.56
2019-01-15T18:34:59.196Z,6.55
2019-01-15T18:37:43.351Z,6.56
2019-01-15T18:40:30.563Z,6.56
2019-01-15T18:43:34.489Z,6.58
2019-01-15T18:46:17.902Z,6.56
2019-01-15T18:49:05.331Z,6.56
2019-01-15T18:51:53.789Z,6.61
2019-01-15T18:55:01.692Z,6.59
2019-01-15T18:57:58.778Z,6.63
2019-01-15T19:00:53.240Z,6.64
2019-01-15T19:03:42.272Z,6.63
2019-01-15T19:06:29.861Z,6.60
2019-01-15T19:09:24.098Z,6.62
2019-01-15T19:12:18.775Z,6.65
2019-01-15T19:15:02.151Z,6.60
2019-01-15T19:17:52.049Z,6.58
2019-01-15T19:20:43.832Z,6.62
2019-01-15T19:23:30.874Z,6.62
2019-01-15T19:26:19.202Z,6.57
2019-01-15T19:29:06.275Z,6.57
2019-01-15T19:32:09.872Z,6.58
2019-01-15T19:35:03.417Z,6.59
2019-01-15T19:37:54.869Z,6.61
2019-01-15T19:40:46.107Z,6.63
2019-01-15T19:43:35.265Z,6.60
2019-01-15T19:46:26.459Z,6.59
2019-01-15T19:49:26.960Z,6.58
2019-01-15T19:52:21.268Z,6.57
2019-01-15T19:55:19.608Z,6.64
2019-01-15T19:58:06.425Z,6.57
2019-01-15T20:00:52.991Z,6.60
2019-01-15T20:03:36.133Z,6.58
2019-01-15T20:06:23.369Z,6.55
2019-01-15T20:09:10.155Z,6.55
2019-01-15T20:12:07.447Z,6.55
2019-01-15T20:15:03.679Z,6.57
2019-01-15T20:17:50.969Z,6.56
2019-01-15T20:20:42.422Z,6.57
2019-01-15T20:23:36.577Z,6.59
2019-01-15T20:26:42.914Z,6.62
2019-01-15T20:29:46.786Z,6.61
2019-01-15T20:32:28.775Z,6.60
2019-01-15T20:35:33.474Z,6.60
2019-01-15T20:38:16.317Z,6.58
2019-01-15T20:41:07.700Z,6.59
2019-01-15T20:43:54.934Z,6.60
2019-01-15T20:46:42.063Z,6.62
2019-01-15T20:49:45.338Z,6.60
2019-01-15T20:52:53.401Z,6.63
2019-01-15T20:55:31.847Z,6.60
2019-01-15T20:58:23.313Z,6.63
2019-01-15T21:01:20.674Z,6.66
2019-01-15T21:04:07.825Z,6.66
2019-01-15T21:06:48.706Z,6.67
2019-01-15T21:09:36.829Z,6.86
2019-01-15T21:12:30.858Z,6.81
2019-01-15T21:15:17.674Z,6.73
2019-01-15T21:18:23.991Z,6.67
2019-01-15T21:21:21.232Z,6.67
2019-01-15T21:24:09.354Z,6.64
2019-01-15T21:26:57.487Z,6.70
2019-01-15T21:29:47.191Z,6.66
2019-01-15T21:32:37.154Z,6.66
2019-01-15T21:35:33.055Z,6.64
2019-01-15T21:38:14.507Z,6.66
2019-01-15T21:41:01.680Z,6.69
2019-01-15T21:43:43.315Z,6.68
2019-01-15T21:46:30.402Z,6.69
2019-01-15T21:49:17.316Z,6.68
2019-01-15T21:52:11.815Z,6.71
2019-01-15T21:55:15.294Z,6.72
2019-01-15T21:58:09.697Z,6.72
2019-01-15T22:01:13.124Z,6.78
2019-01-15T22:04:07.827Z,6.78
2019-01-15T22:07:05.334Z,6.75
2019-01-15T22:09:52.297Z,6.77
2019-01-15T22:12:52.743Z,6.79
2019-01-15T22:15:41.343Z,6.76
2019-01-15T22:18:28.411Z,6.74
2019-01-15T22:21:19.430Z,6.82
2019-01-15T22:24:10.396Z,6.84
2019-01-15T22:26:58.848Z,6.82
2019-01-15T22:29:50.378Z,6.89
2019-01-15T22:32:37.121Z,6.89
2019-01-15T22:35:24.163Z,6.91
2019-01-15T22:38:12.851Z,6.93
2019-01-15T22:40:53.795Z,6.98
2019-01-15T22:43:42.197Z,6.98
2019-01-15T22:46:33.611Z,6.98
2019-01-15T22:49:37.066Z,7.00
2019-01-15T22:52:43.773Z,7.01
2019-01-15T22:55:23.145Z,6.99
2019-01-15T22:58:20.706Z,6.91
2019-01-15T23:01:07.835Z,6.89
2019-01-15T23:03:54.912Z,6.95
2019-01-15T23:06:52.175Z,6.93
2019-01-15T23:09:46.748Z,6.92
2019-01-15T23:12:33.704Z,6.96
2019-01-15T23:15:36.991Z,6.93
2019-01-15T23:18:23.795Z,6.98
2019-01-15T23:21:18.617Z,6.97
2019-01-15T23:24:03.937Z,7.00
2019-01-15T23:26:52.777Z,6.95
2019-01-15T23:29:39.769Z,6.90
2019-01-15T23:32:16.476Z,6.93
2019-01-15T23:35:03.657Z,6.91
2019-01-15T23:37:58.893Z,6.86
2019-01-15T23:40:46.302Z,6.90
2019-01-15T23:43:33.625Z,6.80
2019-01-15T23:46:17.105Z,6.85
2019-01-15T23:49:04.130Z,6.73
2019-01-15T23:51:56.112Z,6.79
2019-01-15T23:54:47.303Z,6.77
2019-01-15T23:57:35.649Z,6.77
